createdAt,value
2022-10-15T00:48:10.891Z,69.1953125
2022-10-15T00:48:50.887Z,69.12597656
2022-10-15T00:49:57.978Z,69.44921875
2022-10-15T00:50:54.434Z,70.71875
2022-10-15T00:51:56.559Z,71.75292969
2022-10-15T00:52:51.665Z,72.74609375
2022-10-15T00:53:51.023Z,73.68457031
2022-10-15T00:54:49.282Z,74.29492188
2022-10-15T00:56:47.527Z,75.59179688
2022-10-15T00:57:41.252Z,76.31640625
2022-10-15T00:58:40.160Z,76.57324219
2022-10-15T00:59:33.600Z,77.03613281
2022-10-15T01:00:31.831Z,77.53027344
2022-10-15T01:01:28.110Z,77.97558594
2022-10-15T01:02:27.801Z,78.35449219
2022-10-15T01:03:28.622Z,78.39355469
2022-10-15T01:04:28.135Z,78.90136719
2022-10-15T01:05:18.556Z,79.38574219
2022-10-15T01:06:15.089Z,79.58105469
2022-10-15T01:07:14.045Z,79.72851563
2022-10-15T01:08:10.002Z,79.94433594
2022-10-15T01:09:13.825Z,79.92675781
2022-10-15T01:10:05.604Z,80.0546875
2022-10-15T01:11:06.358Z,80.28320313
2022-10-15T01:11:56.727Z,80.61425781
2022-10-15T01:12:52.835Z,80.67675781
2022-10-15T01:13:47.354Z,80.82714844
2022-10-15T01:14:50.573Z,80.84277344
2022-10-15T01:16:46.403Z,81.39453125
2022-10-15T01:17:45.765Z,81.56640625
2022-10-15T01:19:23.167Z,81.16601563
2022-10-15T01:21:37.633Z,79.63671875
2022-10-15T01:22:21.149Z,79.18066406
2022-10-15T01:23:21.259Z,79.1640625
2022-10-15T01:24:17.943Z,79.27246094
2022-10-15T01:25:13.137Z,79.23046875
2022-10-15T01:26:11.299Z,79.91601563
2022-10-15T01:27:05.847Z,80.19335938
2022-10-15T01:28:07.322Z,80.24511719
2022-10-15T01:29:02.411Z,80.515625
2022-10-15T01:29:59.426Z,80.86914063
2022-10-15T01:31:51.201Z,81.20898438
2022-10-15T01:32:54.363Z,81.36523438
2022-10-15T01:33:53.980Z,81.5859375
2022-10-15T01:34:48.587Z,81.47460938
2022-10-15T01:36:43.759Z,81.94921875
2022-10-15T01:37:42.460Z,82.06835938
2022-10-15T01:38:36.797Z,82.14257813
2022-10-15T01:39:39.772Z,82.32617188
2022-10-15T01:40:35.201Z,82.38183594
2022-10-15T01:41:37.505Z,82.3671875
2022-10-15T01:42:30.625Z,82.54492188
2022-10-15T01:43:29.423Z,82.68945313
2022-10-15T01:44:25.143Z,82.81835938
2022-10-15T01:45:27.403Z,82.86914063
2022-10-15T01:47:21.153Z,82.83300781
2022-10-15T01:48:15.648Z,82.35253906
2022-10-15T01:49:17.941Z,82.53515625
2022-10-15T01:50:14.462Z,82.44921875
2022-10-15T01:51:14.154Z,82.39355469
2022-10-15T01:52:10.392Z,82.62109375
2022-10-15T01:53:09.610Z,82.58300781
2022-10-15T01:54:10.266Z,82.86914063
2022-10-15T01:55:01.175Z,83.02148438
2022-10-15T01:56:05.982Z,83.20019531
2022-10-15T01:56:56.738Z,83.11816406
2022-10-15T01:57:55.156Z,83.27246094
2022-10-15T01:58:48.596Z,83.3125
2022-10-15T01:59:46.533Z,83.31835938
2022-10-15T02:00:44.692Z,83.49707031
2022-10-15T02:01:47.474Z,83.46191406
2022-10-15T02:02:40.079Z,83.640625
2022-10-15T02:03:42.036Z,83.56445313
2022-10-15T02:04:35.295Z,83.51757813
2022-10-15T02:06:29.469Z,83.828125
2022-10-15T02:07:25.219Z,83.97265625
2022-10-15T02:08:57.193Z,84.09863281
2022-10-15T02:09:43.493Z,83.89941406
2022-10-15T02:10:41.925Z,83.93847656
2022-10-15T02:11:45.585Z,83.72460938
2022-10-15T02:12:41.225Z,83.93847656
2022-10-15T02:13:40.855Z,84.0703125
2022-10-15T02:14:37.915Z,83.92382813
2022-10-15T02:15:37.819Z,84.24511719
2022-10-15T02:16:35.032Z,84.15625
2022-10-15T02:17:36.857Z,84.06347656
2022-10-15T02:18:39.779Z,84.35253906
2022-10-15T02:19:41.623Z,84.34765625
2022-10-15T02:21:37.551Z,84.54980469
2022-10-15T02:22:37.404Z,84.58007813
2022-10-15T02:23:33.037Z,84.57910156
2022-10-15T02:24:37.237Z,84.71191406
2022-10-15T02:25:30.185Z,84.77050781
2022-10-15T02:27:26.729Z,84.56933594
2022-10-15T02:28:33.042Z,84.6875
2022-10-15T02:29:29.315Z,84.76660156
2022-10-15T02:30:30.035Z,84.75585938
2022-10-15T02:31:25.528Z,84.92480469
2022-10-15T02:32:27.223Z,85.0546875
2022-10-15T02:33:28.973Z,84.99804688
2022-10-15T02:34:30.117Z,85.09765625
2022-10-15T02:35:41.445Z,84.93066406
2022-10-15T02:36:42.082Z,85.0546875
2022-10-15T02:37:47.006Z,85.10546875
2022-10-15T02:38:45.148Z,85.15039063
2022-10-15T02:39:47.597Z,85.26269531
2022-10-15T02:40:40.353Z,85.27441406
2022-10-15T02:41:42.180Z,85.11328125
2022-10-15T02:42:42.752Z,85.28027344
2022-10-15T02:43:35.934Z,85.24804688
2022-10-15T02:44:38.125Z,85.30664063
2022-10-15T02:46:33.266Z,85.27246094
2022-10-15T02:47:32.797Z,85.04589844
2022-10-15T02:49:10.137Z,85.11132813
2022-10-15T02:49:37.579Z,85.30175781
2022-10-15T02:51:36.056Z,84.57128906
2022-10-15T02:52:36.169Z,84.42480469
2022-10-15T02:53:34.331Z,84.61328125
2022-10-15T02:54:34.275Z,84.4765625
2022-10-15T02:55:30.842Z,84.78808594
2022-10-15T02:57:33.287Z,84.78320313
2022-10-15T02:58:35.126Z,84.85058594
2022-10-15T02:59:40.604Z,84.77929688
2022-10-15T03:01:43.175Z,85.20898438
2022-10-15T03:02:43.889Z,84.98046875
2022-10-15T03:03:39.819Z,85.22363281
2022-10-15T03:04:39.727Z,85.30761719
2022-10-15T03:05:41.662Z,85.51855469
2022-10-15T03:06:41.092Z,85.34472656
2022-10-15T03:07:39.261Z,85.71777344
2022-10-15T03:08:44.278Z,85.71386719
2022-10-15T03:09:41.895Z,85.40820313
2022-10-15T03:11:42.241Z,85.48046875
2022-10-15T03:12:40.460Z,85.47851563
2022-10-15T03:13:42.509Z,85.59277344
2022-10-15T03:14:40.144Z,85.46386719
2022-10-15T03:16:38.959Z,85.54785156
2022-10-15T03:17:40.127Z,85.4609375
2022-10-15T03:18:45.785Z,85.43847656
2022-10-15T03:19:41.213Z,85.41308594
2022-10-15T03:21:36.514Z,85.49316406
2022-10-15T03:22:38.324Z,85.47070313
2022-10-15T03:23:36.469Z,85.48046875
2022-10-15T03:24:41.303Z,85.55371094
2022-10-15T03:25:46.489Z,85.57226563
2022-10-15T03:26:40.758Z,85.62109375
2022-10-15T03:27:43.086Z,85.68652344
2022-10-15T03:29:38.197Z,85.37792969
2022-10-15T03:30:17.628Z,85.19335938
2022-10-15T03:31:19.005Z,85.05761719
2022-10-15T03:32:16.574Z,84.98632813
2022-10-15T03:33:14.716Z,85.02636719
2022-10-15T03:34:20.429Z,85.24609375
2022-10-15T03:35:16.231Z,85.02734375
2022-10-15T03:36:24.869Z,85.28125
2022-10-15T03:37:22.110Z,85.35644531
2022-10-15T03:38:20.060Z,85.45800781
2022-10-15T03:39:23.989Z,85.50097656
2022-10-15T03:40:24.972Z,85.4296875
2022-10-15T03:42:18.769Z,85.57617188
2022-10-15T03:43:18.517Z,85.40917969
2022-10-15T03:44:13.667Z,85.25
2022-10-15T03:45:21.108Z,85.19921875
2022-10-15T03:47:11.062Z,85.37792969
2022-10-15T03:48:09.937Z,85.35742188
2022-10-15T03:49:05.829Z,85.46582031
2022-10-15T03:50:06.944Z,85.35058594
2022-10-15T03:51:59.831Z,85.28417969
2022-10-15T03:53:02.525Z,85.453125
2022-10-15T03:54:00.225Z,85.32910156
2022-10-15T03:55:05.789Z,85.31835938
2022-10-15T03:55:57.759Z,85.05175781
2022-10-15T03:57:01.613Z,85.1640625
2022-10-15T03:57:56.394Z,85.10742188
2022-10-15T03:59:01.078Z,85.10644531
2022-10-15T03:59:54.413Z,85.15332031
2022-10-15T04:01:40.753Z,84.93261719
2022-10-15T04:02:23.163Z,84.76074219
2022-10-15T04:03:23.427Z,84.87988281
2022-10-15T04:04:20.981Z,84.6953125
2022-10-15T04:05:27.525Z,84.79882813
2022-10-15T04:07:23.462Z,85.17089844
2022-10-15T04:08:22.707Z,85.40429688
2022-10-15T04:09:24.819Z,85.45507813
2022-10-15T04:10:17.084Z,85.3984375
2022-10-15T04:11:17.964Z,85.546875
2022-10-15T04:12:13.612Z,85.41308594
2022-10-15T04:13:10.632Z,85.61230469
2022-10-15T04:14:13.777Z,85.54296875
2022-10-15T04:15:08.210Z,85.56542969
2022-10-15T04:17:10.809Z,85.91113281
2022-10-15T04:18:12.337Z,85.55957031
2022-10-15T04:19:11.777Z,85.45214844
2022-10-15T04:20:07.562Z,85.19726563
2022-10-15T04:22:07.587Z,85.73730469
2022-10-15T04:23:07.075Z,85.66308594
2022-10-15T04:24:02.471Z,85.78515625
2022-10-15T04:25:05.909Z,85.58398438
2022-10-15T04:26:16.499Z,85.74511719
2022-10-15T04:28:13.280Z,85.89355469
2022-10-15T04:29:15.068Z,85.93847656
2022-10-15T04:30:09.313Z,85.76953125
2022-10-15T04:32:08.803Z,86.12304688
2022-10-15T04:33:53.012Z,85.86523438
2022-10-15T04:34:37.724Z,85.76464844
2022-10-15T04:36:35.105Z,85.61621094
2022-10-15T04:37:34.450Z,85.63476563
2022-10-15T04:38:34.143Z,85.64160156
2022-10-15T04:39:29.453Z,86.02050781
2022-10-15T04:40:34.427Z,85.73144531
2022-10-15T04:41:39.349Z,85.70800781
2022-10-15T04:42:34.492Z,85.31152344
2022-10-15T04:43:35.286Z,85.21386719
2022-10-15T04:44:29.696Z,85.24707031
2022-10-15T04:45:31.155Z,85.22949219
2022-10-15T04:47:27.010Z,85.55175781
2022-10-15T04:48:23.685Z,85.47753906
2022-10-15T04:49:25.711Z,85.51757813
2022-10-15T04:50:21.760Z,85.73144531
2022-10-15T04:52:20.772Z,85.61523438
2022-10-15T04:53:20.252Z,85.78613281
2022-10-15T04:54:15.544Z,85.81738281
2022-10-15T04:55:13.796Z,85.71679688
2022-10-15T04:57:17.997Z,85.92675781
2022-10-15T04:58:11.604Z,85.85742188
2022-10-15T04:59:10.364Z,85.87402344
2022-10-15T05:00:11.843Z,85.56445313
2022-10-15T05:01:08.130Z,85.90625
2022-10-15T05:02:10.477Z,85.79394531
2022-10-15T05:03:04.939Z,85.90625
2022-10-15T05:04:06.434Z,85.68261719
2022-10-15T05:05:00.612Z,85.82910156
2022-10-15T05:06:00.401Z,85.88867188
2022-10-15T05:07:03.472Z,85.83496094
2022-10-15T05:07:58.376Z,86.04882813
2022-10-15T05:09:01.954Z,85.8671875
2022-10-15T05:10:02.951Z,86.0546875
2022-10-15T05:11:06.950Z,85.93261719
2022-10-15T05:12:03.894Z,86.04003906
2022-10-15T05:13:38.215Z,86.09375
2022-10-15T05:16:03.048Z,83.80175781
2022-10-15T05:16:43.016Z,83.20703125
2022-10-15T05:17:41.153Z,83.11816406
2022-10-15T05:18:39.487Z,83.17382813
2022-10-15T05:19:34.815Z,83.59667969
2022-10-15T05:20:34.991Z,83.95117188
2022-10-15T05:22:26.846Z,84.47753906
2022-10-15T05:23:33.997Z,84.875
2022-10-15T05:24:33.902Z,84.88085938
2022-10-15T05:25:29.434Z,85.29980469
2022-10-15T05:27:26.698Z,85.32324219
2022-10-15T05:28:26.435Z,85.50195313
2022-10-15T05:29:23.728Z,85.41992188
2022-10-15T05:30:25.799Z,85.48730469
2022-10-15T05:31:22.442Z,85.27148438
2022-10-15T05:32:15.981Z,85.5703125
2022-10-15T05:33:18.724Z,85.65527344
2022-10-15T05:34:09.657Z,85.67382813
2022-10-15T05:35:08.699Z,85.59570313
2022-10-15T05:36:04.298Z,85.6328125
2022-10-15T05:37:02.360Z,85.66894531
2022-10-15T05:37:55.970Z,85.61230469
2022-10-15T05:39:02.339Z,85.61230469
2022-10-15T05:40:00.604Z,85.6015625
2022-10-15T05:41:52.673Z,85.59667969
2022-10-15T05:43:44.552Z,85.57324219
2022-10-15T05:44:45.294Z,85.58691406
2022-10-15T05:45:38.361Z,85.66699219
2022-10-15T05:46:40.909Z,85.52441406
2022-10-15T05:47:43.124Z,85.38769531
2022-10-15T05:48:44.324Z,85.34277344
2022-10-15T05:49:37.607Z,85.34277344
2022-10-15T05:50:43.091Z,85.46679688
2022-10-15T05:51:40.997Z,85.39355469
2022-10-15T05:52:38.867Z,85.55859375
2022-10-15T05:53:42.913Z,85.7109375
2022-10-15T05:54:36.344Z,85.74316406
2022-10-15T05:55:39.109Z,85.80078125
2022-10-15T05:56:29.975Z,85.84472656
2022-10-15T05:57:32.759Z,85.89160156
2022-10-15T05:58:25.719Z,85.73339844
2022-10-15T06:00:24.256Z,85.17089844
2022-10-15T06:01:05.743Z,84.84570313
2022-10-15T06:02:07.098Z,85.04589844
2022-10-15T06:03:05.633Z,84.90917969
2022-10-15T06:04:05.010Z,85.23925781
2022-10-15T06:05:04.066Z,85.30175781
2022-10-15T06:06:59.381Z,85.51660156
2022-10-15T06:08:00.071Z,85.65136719
2022-10-15T06:08:55.247Z,85.66894531
2022-10-15T06:09:54.086Z,85.69726563
2022-10-15T06:10:49.811Z,85.6640625
2022-10-15T06:11:54.913Z,85.98632813
2022-10-15T06:12:50.577Z,86.02636719
2022-10-15T06:13:55.116Z,85.94433594
2022-10-15T06:14:47.772Z,85.94726563
2022-10-15T06:16:50.454Z,86.10449219
2022-10-15T06:17:42.879Z,86.11425781
2022-10-15T06:18:44.841Z,85.99414063
2022-10-15T06:19:37.897Z,85.859375
2022-10-15T06:20:37.412Z,86.00878906
2022-10-15T06:21:32.685Z,85.77246094
2022-10-15T06:22:32.652Z,85.88378906
2022-10-15T06:23:27.947Z,85.76953125
2022-10-15T06:24:28.671Z,85.86914063
2022-10-15T06:25:21.428Z,85.68847656
2022-10-15T06:27:20.222Z,85.68847656
2022-10-15T06:28:19.747Z,85.75488281
2022-10-15T06:29:20.836Z,85.69628906
2022-10-15T06:30:16.227Z,85.75292969
2022-10-15T06:31:21.839Z,85.85351563
2022-10-15T06:32:13.605Z,85.89160156
2022-10-15T06:33:16.721Z,85.91992188
2022-10-15T06:34:08.531Z,85.77734375
2022-10-15T06:35:08.434Z,85.83496094
2022-10-15T06:36:03.641Z,85.68652344
2022-10-15T06:37:08.310Z,85.75390625
2022-10-15T06:38:03.116Z,85.73144531
2022-10-15T06:39:02.938Z,85.73925781
2022-10-15T06:40:02.702Z,85.88867188
2022-10-15T06:41:53.371Z,85.99023438
2022-10-15T06:42:54.427Z,86.05761719
2022-10-15T06:44:18.916Z,85.80664063
2022-10-15T06:45:00.488Z,86.24707031
2022-10-15T06:46:00.133Z,86.296875
2022-10-15T06:46:58.864Z,86.31640625
2022-10-15T06:47:58.408Z,86.42480469
2022-10-15T06:48:54.182Z,86.34863281
2022-10-15T06:49:53.896Z,86.47753906
2022-10-15T06:50:51.034Z,86.56054688
2022-10-15T06:51:50.483Z,86.72753906
2022-10-15T06:52:45.891Z,86.75585938
2022-10-15T06:53:47.843Z,86.89257813
2022-10-15T06:54:41.934Z,86.8359375
2022-10-15T06:56:03.101Z,86.7578125
2022-10-15T06:57:01.304Z,86.70605469
2022-10-15T06:58:02.664Z,86.796875
2022-10-15T06:58:57.826Z,87.09472656
2022-10-15T06:59:57.676Z,86.91503906
2022-10-15T07:00:53.091Z,86.98242188
2022-10-15T07:02:01.422Z,87.10644531
2022-10-15T07:02:53.983Z,87.19628906
2022-10-15T07:03:54.659Z,87.23144531
2022-10-15T07:04:51.731Z,87.21875
2022-10-15T07:06:47.168Z,87.36621094
2022-10-15T07:07:47.420Z,87.265625
2022-10-15T07:08:48.976Z,87.390625
2022-10-15T07:09:41.813Z,87.25976563
2022-10-15T07:11:37.559Z,87.36230469
2022-10-15T07:12:37.389Z,87.29980469
2022-10-15T07:13:34.452Z,87.22363281
2022-10-15T07:14:34.883Z,87.02050781
2022-10-15T07:15:29.628Z,87.11425781
2022-10-15T07:16:29.959Z,86.98339844
2022-10-15T07:17:29.185Z,87.1875
2022-10-15T07:19:07.602Z,86.81445313
2022-10-15T07:20:06.850Z,85.76855469
2022-10-15T07:22:02.851Z,84.04980469
2022-10-15T07:23:04.239Z,83.89648438
2022-10-15T07:23:59.723Z,84.42773438
2022-10-15T07:25:00.031Z,84.4609375
2022-10-15T07:26:24.143Z,84.93164063
2022-10-15T07:27:08.048Z,85.25390625
2022-10-15T07:27:18.650Z,85.25390625
2022-10-15T07:27:20.869Z,85.25390625
2022-10-15T07:28:05.899Z,85.03222656
2022-10-15T07:29:04.208Z,84.9765625
2022-10-15T07:30:00.569Z,84.83496094
2022-10-15T07:31:00.474Z,84.90527344
2022-10-15T07:31:56.048Z,85.20996094
2022-10-15T07:32:56.359Z,85.31640625
2022-10-15T07:33:52.734Z,85.40527344
2022-10-15T07:34:56.238Z,85.5390625
2022-10-15T07:36:54.818Z,86.140625
2022-10-15T07:37:53.443Z,86.25292969
2022-10-15T07:38:57.403Z,86.52148438
2022-10-15T07:39:50.948Z,86.51269531
2022-10-15T07:41:46.396Z,86.39941406
2022-10-15T07:42:48.978Z,86.50488281
2022-10-15T07:43:41.667Z,86.21386719
2022-10-15T07:44:42.755Z,86.22851563
2022-10-15T07:46:41.138Z,86.11035156
2022-10-15T07:47:33.813Z,86.31542969
2022-10-15T07:48:38.088Z,86.40527344
2022-10-15T07:49:32.483Z,86.38085938
2022-10-15T07:50:36.235Z,86.390625
2022-10-15T07:52:33.889Z,86.34863281
2022-10-15T07:53:35.955Z,86.44140625
2022-10-15T07:54:30.180Z,86.49511719
2022-10-15T07:55:29.153Z,86.35644531
2022-10-15T07:57:25.614Z,86.50683594
2022-10-15T07:58:20.901Z,86.57128906
2022-10-15T07:59:20.540Z,86.69433594
2022-10-15T08:00:15.771Z,86.46972656
2022-10-15T08:02:10.753Z,86.47265625
2022-10-15T08:03:10.638Z,86.34277344
2022-10-15T08:04:05.978Z,86.66992188
2022-10-15T08:05:06.156Z,86.64160156
2022-10-15T08:06:02.205Z,86.75878906
2022-10-15T08:07:01.961Z,86.6953125
2022-10-15T08:07:57.126Z,86.7421875
2022-10-15T08:09:34.211Z,86.59863281
2022-10-15T08:10:14.143Z,86.25195313
2022-10-15T08:12:11.314Z,86.03515625
2022-10-15T08:13:06.654Z,85.97460938
2022-10-15T08:14:05.875Z,86.09863281
2022-10-15T08:15:01.028Z,85.65722656
2022-10-15T08:16:01.248Z,85.69433594
2022-10-15T08:17:38.644Z,85.37011719
2022-10-15T08:18:18.894Z,84.83496094
2022-10-15T08:19:17.200Z,84.67773438
2022-10-15T08:20:17.553Z,84.54394531
2022-10-15T08:21:13.078Z,84.41796875
2022-10-15T08:22:12.956Z,84.35058594
2022-10-15T08:23:47.449Z,84.59179688
2022-10-15T08:24:27.318Z,84.79101563
2022-10-15T08:26:34.886Z,84.77929688
2022-10-15T08:26:41.826Z,84.61035156
2022-10-15T08:27:42.378Z,83.91894531
2022-10-15T08:28:38.861Z,82.78125
2022-10-15T08:29:38.224Z,83.04101563
2022-10-15T08:30:33.394Z,83.32617188
2022-10-15T08:31:33.484Z,83.10839844
2022-10-15T08:32:28.739Z,83.06738281
2022-10-15T08:33:28.506Z,83.1015625
2022-10-15T08:34:23.854Z,83.04101563
2022-10-15T08:35:23.625Z,83.20605469
2022-10-15T08:37:21.286Z,83.83789063
2022-10-15T08:38:17.496Z,83.1796875
2022-10-15T08:38:19.947Z,83.1796875
2022-10-15T08:39:14.914Z,83.07910156
2022-10-15T08:40:11.231Z,83.30566406
2022-10-15T08:42:12.222Z,83.00195313
2022-10-15T08:43:09.361Z,82.93359375
2022-10-15T08:44:11.542Z,81.13183594
2022-10-15T08:45:08.894Z,81.5703125
2022-10-15T08:46:13.729Z,81.30664063
2022-10-15T08:47:08.975Z,81.00292969
2022-10-15T08:48:09.451Z,80.88183594
2022-10-15T08:49:10.190Z,80.86425781
2022-10-15T08:50:06.705Z,80.48632813
2022-10-15T08:52:06.163Z,80.18066406
2022-10-15T08:53:06.892Z,80.21875
2022-10-15T08:54:03.232Z,78.47558594
2022-10-15T08:55:06.647Z,79.15136719
2022-10-15T08:57:03.737Z,80.47363281
2022-10-15T08:57:57.998Z,80.7890625
2022-10-15T08:59:00.651Z,79.74316406
2022-10-15T08:59:54.954Z,79.55371094
2022-10-15T09:00:57.619Z,80.38769531
2022-10-15T09:01:51.917Z,79.69824219
2022-10-15T09:02:50.506Z,79.30175781
2022-10-15T09:03:49.721Z,79.5390625
2022-10-15T09:04:46.109Z,80.00097656
2022-10-15T09:05:46.460Z,80.43554688
2022-10-15T09:06:41.969Z,80.74023438
2022-10-15T09:07:44.662Z,80.17675781
2022-10-15T09:08:40.210Z,79.18359375
2022-10-15T09:09:37.731Z,79.02148438
2022-10-15T09:10:37.753Z,79.51171875
2022-10-15T09:12:35.542Z,78.72558594
2022-10-15T09:14:10.342Z,78.92285156
2022-10-15T09:16:24.714Z,79.00976563
2022-10-15T09:17:07.503Z,78.53710938
2022-10-15T09:18:06.669Z,78.69238281
2022-10-15T09:19:06.090Z,78.94042969
2022-10-15T09:20:01.835Z,77.87304688
2022-10-15T09:21:02.202Z,79.26464844
2022-10-15T09:21:57.668Z,78.99414063
2022-10-15T09:22:58.057Z,79.10742188
2022-10-15T09:23:53.552Z,78.61816406
2022-10-15T09:24:54.062Z,78.81054688
2022-10-15T09:26:50.897Z,79.72265625
2022-10-15T09:27:47.287Z,79.72070313
2022-10-15T09:28:47.543Z,80.04101563
2022-10-15T09:29:43.268Z,79.94628906
2022-10-15T09:31:40.461Z,79.21679688
2022-10-15T09:32:38.303Z,78.60351563
2022-10-15T09:33:39.297Z,78.95019531
2022-10-15T09:34:34.883Z,77.66699219
2022-10-15T13:25:15.867Z,70.31152344
2022-10-15T13:26:17.745Z,70.99804688
2022-10-15T13:27:14.607Z,71.76855469
2022-10-15T13:28:16.362Z,72.50488281
2022-10-15T13:29:12.927Z,73.39257813
2022-10-15T13:30:16.984Z,74.390625
2022-10-15T13:32:13.147Z,75.64453125
2022-10-15T13:33:09.726Z,76.35253906
2022-10-15T13:34:10.662Z,77.15820313
2022-10-15T13:35:07.042Z,77.32324219
2022-10-15T13:36:10.471Z,78.15136719
2022-10-15T13:37:04.819Z,78.22851563
2022-10-15T13:38:05.672Z,78.48339844
2022-10-15T13:39:01.756Z,78.78027344
2022-10-15T13:40:06.596Z,79.04394531
2022-10-15T13:40:08.268Z,79.04394531
2022-10-15T13:41:00.846Z,79.41503906
2022-10-15T13:41:56.622Z,79.12109375
2022-10-15T13:42:57.172Z,79.43652344
2022-10-15T13:43:54.235Z,79.48828125
2022-10-15T13:45:29.223Z,79.4765625
2022-10-15T13:45:49.252Z,79.37402344
2022-10-15T13:47:47.173Z,78.93945313
2022-10-15T13:49:40.882Z,79.11914063
2022-10-15T13:50:41.133Z,79.1484375
2022-10-15T13:51:36.664Z,79.7578125
2022-10-15T13:52:36.093Z,79.68164063
2022-10-15T13:53:30.979Z,79.63964844
2022-10-15T13:54:32.748Z,79.36035156
2022-10-15T13:55:29.707Z,79.08203125
2022-10-15T13:57:27.182Z,78.94726563
2022-10-15T13:58:27.702Z,79.39160156
2022-10-15T13:59:21.664Z,79.16015625
2022-10-15T14:00:21.304Z,79.21386719
2022-10-15T14:02:13.216Z,79.59277344
2022-10-15T14:03:14.905Z,79.60546875
2022-10-15T14:04:08.314Z,79.80566406
2022-10-15T14:05:10.259Z,79.9765625
2022-10-15T14:06:02.250Z,79.9765625
2022-10-15T14:07:02.411Z,80.21972656
2022-10-15T14:07:57.229Z,80.31738281
2022-10-15T14:08:56.444Z,80.27246094
2022-10-15T14:09:50.885Z,80.3515625
2022-10-15T14:10:52.625Z,80.24121094
2022-10-15T14:12:43.075Z,80.10449219
2022-10-15T14:13:42.300Z,80.10449219
2022-10-15T14:14:39.170Z,80.41308594
2022-10-15T14:15:33.741Z,80.34667969
2022-10-15T14:16:35.697Z,80.26855469
2022-10-15T14:17:28.482Z,80.25292969
2022-10-15T14:18:30.324Z,79.92089844
2022-10-15T14:19:22.572Z,79.85449219
2022-10-15T14:20:27.923Z,80.48046875
2022-10-15T14:22:47.724Z,79.70703125
2022-10-15T14:22:54.782Z,79.52441406
2022-10-15T14:23:54.686Z,79.12597656
2022-10-15T14:24:49.503Z,79.27539063
2022-10-15T14:25:48.506Z,79.30664063
2022-10-15T14:26:43.739Z,79.49023438
2022-10-15T14:27:43.475Z,79.56640625
2022-10-15T14:28:38.416Z,79.56054688
2022-10-15T14:29:39.955Z,79.37402344
2022-10-15T14:30:32.433Z,79.57714844
2022-10-15T14:32:26.873Z,80.07421875
2022-10-15T14:33:27.105Z,79.9921875
2022-10-15T14:34:22.318Z,80.06933594
2022-10-15T14:35:21.146Z,80.03027344
2022-10-15T14:36:15.504Z,80.265625
2022-10-15T14:37:14.678Z,80.24316406
2022-10-15T14:38:09.022Z,80.296875
2022-10-15T14:39:08.280Z,80.41015625
2022-10-15T14:40:03.551Z,80.39355469
2022-10-15T14:41:04.847Z,80.53222656
2022-10-15T14:41:07.336Z,80.53222656
2022-10-15T14:41:59.861Z,80.43164063
2022-10-15T14:42:55.074Z,80.32226563
2022-10-15T14:43:56.500Z,80.21875
2022-10-15T14:44:48.535Z,80.62011719
2022-10-15T14:45:54.747Z,80.58398438
2022-10-15T14:46:49.158Z,80.61035156
2022-10-15T14:47:46.781Z,80.50390625
2022-10-15T14:48:48.184Z,80.42675781
2022-10-15T14:49:43.275Z,80.8359375
2022-10-15T14:50:46.166Z,80.93847656
2022-10-15T14:51:43.519Z,81.07421875
2022-10-15T14:52:40.931Z,80.94921875
2022-10-15T14:53:41.120Z,81.00976563
2022-10-15T14:54:36.296Z,81.11035156
2022-10-15T14:55:36.077Z,80.75
2022-10-15T14:56:32.352Z,80.65039063
2022-10-15T14:57:32.293Z,81.04882813
2022-10-15T14:58:31.124Z,81.47558594
2022-10-15T15:00:29.299Z,80.92675781
2022-10-15T15:00:55.198Z,80.51464844
2022-10-15T15:01:58.535Z,79.69726563
2022-10-15T15:02:02.895Z,79.69726563
2022-10-15T15:02:55.616Z,79.59960938
2022-10-15T15:03:50.834Z,79.70019531
2022-10-15T15:04:50.149Z,79.63671875
2022-10-15T15:05:45.570Z,79.96972656
2022-10-15T15:06:51.010Z,80.28027344
2022-10-15T15:07:45.545Z,80.56738281
2022-10-15T15:08:44.929Z,81.23046875
2022-10-15T15:09:40.225Z,81.328125
2022-10-15T15:10:40.267Z,81.73144531
2022-10-15T15:11:34.948Z,82.04492188
2022-10-15T15:12:37.479Z,82.14257813
2022-10-15T15:13:29.963Z,82.54589844
2022-10-15T15:14:30.075Z,82.65820313
2022-10-15T15:15:24.581Z,83.07421875
2022-10-15T15:16:26.206Z,83.27734375
2022-10-15T15:17:21.843Z,83.29492188
2022-10-15T15:18:23.837Z,83.53808594
2022-10-15T15:19:18.068Z,83.59667969
2022-10-15T15:20:16.353Z,83.70703125
2022-10-15T15:21:10.495Z,83.93359375
2022-10-15T15:22:07.149Z,84.14257813
2022-10-15T15:23:09.307Z,84.24316406
2022-10-15T15:24:05.988Z,84.41894531
2022-10-15T15:25:08.338Z,84.46191406
2022-10-15T15:26:00.418Z,84.45996094
2022-10-15T15:27:00.164Z,84.49316406
2022-10-15T15:27:56.231Z,84.34960938
2022-10-15T15:28:59.535Z,84.4375
2022-10-15T15:29:52.673Z,84.34667969
2022-10-15T15:30:55.179Z,84.42089844
2022-10-15T15:32:46.812Z,84.09960938
2022-10-15T15:33:46.313Z,84.47070313
2022-10-15T15:34:38.963Z,84.53808594
2022-10-15T15:35:41.170Z,84.21875
2022-10-15T15:37:34.704Z,84.47363281
2022-10-15T15:39:34.420Z,84.3515625
2022-10-15T15:41:01.025Z,84.14160156
2022-10-15T15:41:41.691Z,84.08496094
2022-10-15T15:42:45.913Z,83.64453125
2022-10-15T15:43:45.358Z,83.72363281
2022-10-15T15:44:44.976Z,84.03417969
2022-10-15T15:45:41.253Z,84.07714844
2022-10-15T15:46:39.792Z,84.40039063
2022-10-15T15:47:40.960Z,84.33496094
2022-10-15T15:48:38.924Z,84.2734375
2022-10-15T15:49:38.015Z,84.47558594
2022-10-15T15:50:33.666Z,84.24902344
2022-10-15T15:51:33.410Z,84.765625
2022-10-15T15:52:31.280Z,84.56542969
2022-10-15T15:52:36.269Z,84.56542969
2022-10-15T15:53:28.923Z,84.46679688
2022-10-15T15:54:28.646Z,84.44433594
2022-10-15T15:55:24.845Z,84.46679688
2022-10-15T15:56:24.684Z,84.50878906
2022-10-15T15:57:23.020Z,84.48339844
2022-10-15T15:58:22.868Z,84.74023438
2022-10-15T15:59:18.388Z,84.81933594
2022-10-15T16:00:16.801Z,84.765625
2022-10-15T16:01:24.983Z,85.02441406
2022-10-15T16:02:18.296Z,85.02246094
2022-10-15T16:03:14.854Z,85.11132813
2022-10-15T16:04:17.115Z,85.21386719
2022-10-15T16:05:11.352Z,85.39550781
2022-10-15T16:06:15.411Z,85.57617188
2022-10-15T16:07:13.192Z,85.63085938
2022-10-15T16:08:11.499Z,85.59570313
2022-10-15T16:09:04.370Z,85.56347656
2022-10-15T16:10:04.890Z,85.84472656
2022-10-15T16:11:00.645Z,85.94335938
2022-10-15T16:12:00.661Z,86.06640625
2022-10-15T16:12:59.893Z,86.12109375
2022-10-15T16:13:59.076Z,86.18554688
2022-10-15T16:14:59.698Z,86.3515625
2022-10-15T16:16:01.561Z,86.31640625
2022-10-15T16:17:57.986Z,86.4765625
2022-10-15T16:19:00.117Z,86.53417969